Time;durP1;ratioP1;P1;durP2;ratioP2;P2;SDS_P1;SDS_P2;PMS_P1;PMS_P2;Temp;Humidity;BMP_temperature;BMP_pressure;BME280_temperature;BME280_humidity;BME280_pressure;Samples;Min_cycle;Max_cycle;Signal;HPM_P1;HPM_P2
2022/08/25 00:04:21;;;;;;;1.17;0.82;;;31.20;56.90;;;;;;10485343;28;20052;-42
2022/08/25 00:09:25;;;;;;;0.95;0.85;;;31.10;56.90;;;;;;10482515;28;20044;-39
2022/08/25 00:14:32;;;;;;;3.38;1.00;;;31.10;57.00;;;;;;10494732;28;20127;-42
2022/08/25 00:19:36;;;;;;;1.70;0.98;;;31.00;57.00;;;;;;10492416;28;20087;-43
2022/08/25 00:24:38;;;;;;;1.73;1.08;;;31.10;57.10;;;;;;10503092;28;20110;-39
2022/08/25 00:29:42;;;;;;;1.77;1.13;;;31.00;57.10;;;;;;10490467;28;20135;-41
2022/08/25 00:34:44;;;;;;;1.00;0.90;;;31.00;57.10;;;;;;10513705;28;20052;-43
2022/08/25 00:39:46;;;;;;;1.52;1.20;;;30.90;57.10;;;;;;10490108;28;20048;-43
2022/08/25 00:44:50;;;;;;;1.05;0.90;;;30.90;57.20;;;;;;10490110;28;20139;-43
2022/08/25 00:49:56;;;;;;;1.80;1.20;;;30.80;57.20;;;;;;10484743;28;20132;-42
2022/08/25 00:55:02;;;;;;;1.35;1.08;;;30.90;57.30;;;;;;10480334;28;20040;-41
2022/08/25 01:00:10;;;;;;;1.25;1.13;;;30.80;57.30;;;;;;10498371;28;20049;-41
2022/08/25 01:05:12;;;;;;;1.23;1.13;;;30.70;57.30;;;;;;10489957;28;20059;-41
2022/08/25 01:10:14;;;;;;;3.03;1.60;;;30.70;57.40;;;;;;10486053;28;20175;-38
2022/08/25 01:15:17;;;;;;;2.75;1.10;;;30.70;57.50;;;;;;10481881;28;20048;-44
2022/08/25 01:20:21;;;;;;;1.42;1.30;;;30.70;57.50;;;;;;10468555;28;20090;-39
2022/08/25 01:25:33;;;;;;;1.27;1.13;;;30.70;58.10;;;;;;10467530;28;20052;-43
2022/08/25 01:30:36;;;;;;;2.05;1.30;;;30.60;57.50;;;;;;10464764;28;20048;-42
2022/08/25 01:35:39;;;;;;;2.42;1.10;;;30.60;57.60;;;;;;10467221;28;20613;-39
2022/08/25 01:40:43;;;;;;;1.33;1.23;;;30.60;57.70;;;;;;10477931;28;20135;-39
2022/08/25 01:45:48;;;;;;;1.23;1.10;;;30.50;57.60;;;;;;10476120;28;20064;-42
2022/08/25 01:50:50;;;;;;;1.42;1.33;;;30.50;57.70;;;;;;10480848;28;20131;-40
2022/08/25 01:56:00;;;;;;;1.83;1.30;;;30.50;57.70;;;;;;10479091;28;20084;-42
2022/08/25 02:01:04;;;;;;;1.73;1.40;;;30.40;57.80;;;;;;10483469;28;20106;-44
2022/08/25 02:06:07;;;;;;;1.48;1.35;;;30.40;57.80;;;;;;10490095;28;20076;-42
2022/08/25 02:11:12;;;;;;;1.58;1.30;;;30.40;57.90;;;;;;10479938;28;20400;-42
2022/08/25 02:16:19;;;;;;;1.45;1.30;;;30.30;57.80;;;;;;10500486;28;20183;-41
2022/08/25 02:21:21;;;;;;;1.95;1.15;;;30.30;57.90;;;;;;10491875;28;20045;-40
2022/08/25 02:26:24;;;;;;;1.27;1.17;;;30.20;57.90;;;;;;10488289;28;20048;-42
2022/08/25 02:31:27;;;;;;;1.55;1.25;;;30.30;58.00;;;;;;10479785;28;20531;-43
2022/08/25 02:36:30;;;;;;;1.10;1.00;;;30.20;57.90;;;;;;10486622;28;20125;-41
2022/08/25 02:41:34;;;;;;;1.60;1.30;;;30.20;58.10;;;;;;10488111;28;20095;-40
2022/08/25 02:46:37;;;;;;;2.00;1.40;;;30.20;58.10;;;;;;10491612;28;20080;-41
2022/08/25 02:51:39;;;;;;;2.75;1.30;;;30.20;58.20;;;;;;10482971;28;20604;-42
2022/08/25 02:56:42;;;;;;;1.90;1.40;;;30.10;58.10;;;;;;10478342;28;20058;-42
2022/08/25 03:01:44;;;;;;;2.05;1.52;;;30.10;58.20;;;;;;10488573;28;20043;-40
2022/08/25 03:06:46;;;;;;;1.65;1.40;;;30.10;58.20;;;;;;10483419;28;20088;-40
2022/08/25 03:11:49;;;;;;;3.00;1.33;;;30.00;58.20;;;;;;10478414;28;20064;-42
2022/08/25 03:16:51;;;;;;;1.42;1.33;;;30.00;58.20;;;;;;10476007;28;20052;-42
2022/08/25 03:21:55;;;;;;;1.25;1.15;;;30.00;58.30;;;;;;10488136;28;20107;-40
2022/08/25 03:26:58;;;;;;;1.30;1.20;;;30.00;58.30;;;;;;10474244;28;20056;-44
2022/08/25 03:32:00;;;;;;;2.67;1.48;;;29.90;58.30;;;;;;10467665;28;20141;-44
2022/08/25 03:37:04;;;;;;;1.60;1.25;;;29.90;58.30;;;;;;10484228;28;20048;-41
2022/08/25 03:42:07;;;;;;;1.70;1.60;;;29.90;58.40;;;;;;10466842;28;20766;-41
2022/08/25 03:47:09;;;;;;;1.48;1.27;;;29.90;58.40;;;;;;10485319;28;20118;-40
2022/08/25 03:52:11;;;;;;;1.42;1.30;;;29.80;58.40;;;;;;10483650;28;20124;-43
2022/08/25 03:57:14;;;;;;;1.52;1.25;;;29.70;58.30;;;;;;10486997;28;20464;-42
2022/08/25 04:02:16;;;;;;;1.50;1.40;;;29.80;58.40;;;;;;10497743;28;20095;-42
2022/08/25 04:07:19;;;;;;;1.83;1.73;;;29.70;58.30;;;;;;10490307;28;20132;-42
2022/08/25 04:12:23;;;;;;;2.78;1.42;;;29.70;58.30;;;;;;10484074;28;20062;-43
2022/08/25 04:17:25;;;;;;;2.83;1.80;;;29.70;58.40;;;;;;10495251;28;20055;-41
2022/08/25 04:22:27;;;;;;;2.15;1.70;;;29.70;58.40;;;;;;10489692;28;20072;-41
2022/08/25 04:27:30;;;;;;;2.05;1.73;;;29.60;58.40;;;;;;10491417;28;20049;-40
2022/08/25 04:32:32;;;;;;;1.83;1.63;;;29.60;58.40;;;;;;10499905;28;20477;-37
2022/08/25 04:37:34;;;;;;;3.20;1.60;;;29.60;58.40;;;;;;10494204;28;20148;-43
2022/08/25 04:42:38;;;;;;;1.70;1.50;;;29.50;58.40;;;;;;10489404;28;20509;-42
2022/08/25 04:47:40;;;;;;;3.45;1.52;;;29.50;58.40;;;;;;10490993;28;20131;-40
2022/08/25 04:52:42;;;;;;;3.35;1.70;;;29.50;58.30;;;;;;10500383;28;20084;-43
2022/08/25 04:57:45;;;;;;;2.25;1.33;;;29.50;58.30;;;;;;10487058;28;20064;-39
2022/08/25 05:02:47;;;;;;;2.85;1.55;;;29.40;58.30;;;;;;10492511;28;20076;-40
2022/08/25 05:07:49;;;;;;;5.10;1.75;;;29.50;58.30;;;;;;10480713;28;20045;-43
2022/08/25 05:12:52;;;;;;;1.88;1.70;;;29.50;58.30;;;;;;10488540;28;20048;-37
2022/08/25 05:17:54;;;;;;;2.95;1.70;;;29.40;58.20;;;;;;10488807;28;20571;-43
2022/08/25 05:22:56;;;;;;;3.88;1.55;;;29.40;58.20;;;;;;10480989;28;20143;-44
2022/08/25 05:28:00;;;;;;;2.97;1.73;;;29.40;58.20;;;;;;10485186;28;20071;-42
2022/08/25 05:33:03;;;;;;;2.22;1.77;;;29.40;58.10;;;;;;10487237;28;20052;-41
2022/08/25 05:38:06;;;;;;;2.38;1.85;;;29.40;58.00;;;;;;10488768;28;20072;-42
2022/08/25 05:43:09;;;;;;;4.30;1.98;;;29.40;58.00;;;;;;10482746;28;20143;-37
2022/08/25 05:48:11;;;;;;;2.40;1.75;;;29.40;57.90;;;;;;10480573;28;20045;-40
2022/08/25 05:53:13;;;;;;;5.00;1.85;;;29.40;57.80;;;;;;10494140;28;20080;-39
2022/08/25 05:58:16;;;;;;;3.15;2.10;;;29.30;57.80;;;;;;10483741;28;20052;-40
2022/08/25 06:03:18;;;;;;;3.45;2.15;;;29.30;57.70;;;;;;10485655;28;20098;-44
2022/08/25 06:08:20;;;;;;;5.53;2.47;;;29.30;57.70;;;;;;10488155;28;20052;-41
2022/08/25 06:13:23;;;;;;;5.53;2.30;;;29.30;57.70;;;;;;10485997;28;20098;-40
2022/08/25 06:18:25;;;;;;;3.65;1.90;;;29.30;57.70;;;;;;10482051;28;20049;-40
2022/08/25 06:23:27;;;;;;;5.55;2.20;;;29.30;57.70;;;;;;10483915;28;20149;-40
2022/08/25 06:28:30;;;;;;;2.63;2.08;;;29.30;57.60;;;;;;10482740;28;20055;-40
2022/08/25 06:33:32;;;;;;;4.95;2.40;;;29.30;57.60;;;;;;10487667;28;20052;-41
2022/08/25 06:38:34;;;;;;;2.47;2.05;;;29.30;57.50;;;;;;10485897;28;20080;-42
2022/08/25 06:43:38;;;;;;;3.50;2.05;;;29.20;57.50;;;;;;10477391;28;20059;-42
2022/08/25 06:48:40;;;;;;;3.03;2.05;;;29.20;57.50;;;;;;10476456;28;20102;-42
2022/08/25 06:53:42;;;;;;;6.40;2.90;;;29.20;57.50;;;;;;10481871;28;20063;-41
2022/08/25 06:58:45;;;;;;;5.22;2.30;;;29.20;57.50;;;;;;10487191;28;20072;-44
2022/08/25 07:03:48;;;;;;;6.25;3.13;;;29.20;57.40;;;;;;10489311;28;20103;-38
2022/08/25 07:09:09;;;;;;;8.23;3.58;;;28.90;57.90;;;;;;10472686;28;20073;-41
2022/08/25 07:14:16;;;;;;;7.25;3.60;;;28.20;59.50;;;;;;10475150;28;20061;-41
2022/08/25 07:19:19;;;;;;;6.13;3.60;;;28.10;59.20;;;;;;10466642;28;20052;-42
2022/08/25 07:24:22;;;;;;;13.13;4.18;;;27.90;60.50;;;;;;10477972;28;20566;-35
2022/08/25 07:29:27;;;;;;;5.13;3.72;;;27.70;60.70;;;;;;10479559;28;20064;-33
2022/08/25 07:39:49;;;;;;;8.68;3.70;;;27.70;60.20;;;;;;10476236;28;20045;-34
2022/08/25 07:50:59;;;;;;;5.93;2.85;;;28.50;57.70;;;;;;10474195;28;20119;-36
2022/08/25 07:56:01;;;;;;;3.10;2.80;;;28.60;57.60;;;;;;10477680;28;20075;-34
2022/08/25 08:01:03;;;;;;;5.28;2.42;;;28.70;57.60;;;;;;10474561;28;20065;-36
2022/08/25 08:06:10;;;;;;;6.65;2.40;;;28.80;57.60;;;;;;10475478;28;20059;-35
2022/08/25 08:11:16;;;;;;;3.35;2.30;;;28.80;57.40;;;;;;10477915;28;20086;-37
2022/08/25 08:16:19;;;;;;;5.88;2.22;;;28.90;57.10;;;;;;10477111;28;20059;-36
2022/08/25 08:21:39;;;;;;;2.83;1.95;;;28.90;56.90;;;;;;10484504;28;20079;-36
2022/08/25 08:26:59;;;;;;;4.30;2.37;;;28.90;56.70;;;;;;10463942;28;20455;-36
2022/08/25 08:32:01;;;;;;;12.30;3.40;;;28.70;55.90;;;;;;10488678;28;20066;-36
2022/08/25 08:37:04;;;;;;;4.55;3.13;;;28.70;56.20;;;;;;10493375;28;20040;-36
2022/08/25 08:42:27;;;;;;;8.63;3.58;;;28.30;55.10;;;;;;10487348;28;20134;-36
2022/08/25 08:47:40;;;;;;;6.63;3.25;;;28.40;55.10;;;;;;10474556;28;20076;-37
2022/08/25 08:52:47;;;;;;;12.32;2.78;;;28.60;53.00;;;;;;10485976;28;20062;-38
2022/08/25 08:57:51;;;;;;;19.80;3.17;;;28.70;52.50;;;;;;10488265;28;20136;-35
2022/08/25 09:03:00;;;;;;;6.80;2.40;;;28.60;51.50;;;;;;10489832;28;20500;-37
2022/08/25 09:08:08;;;;;;;3.40;1.92;;;29.40;47.70;;;;;;10487929;28;20048;-36
2022/08/25 09:13:18;;;;;;;3.45;1.90;;;29.20;50.00;;;;;;10491941;28;20469;-36
2022/08/25 09:18:27;;;;;;;6.05;2.33;;;29.10;50.50;;;;;;10478917;28;20771;-38
2022/08/25 09:23:42;;;;;;;11.07;2.22;;;29.00;47.80;;;;;;10479063;28;20633;-37
2022/08/25 09:28:49;;;;;;;2.90;1.83;;;29.20;47.60;;;;;;10489276;28;20136;-37
2022/08/25 09:33:54;;;;;;;6.22;2.67;;;29.40;49.80;;;;;;10474042;28;20053;-36
2022/08/25 09:38:57;;;;;;;2.50;2.08;;;29.60;50.20;;;;;;10478876;28;20179;-35
2022/08/25 09:43:59;;;;;;;5.18;1.50;;;29.60;50.50;;;;;;10480800;28;20114;-35
2022/08/25 09:49:14;;;;;;;2.47;2.00;;;29.90;50.10;;;;;;10484179;28;20084;-35
2022/08/25 09:54:23;;;;;;;4.93;1.60;;;30.60;47.40;;;;;;10479164;28;20149;-36
2022/08/25 09:59:28;;;;;;;4.10;2.28;;;30.60;48.80;;;;;;10479698;28;20037;-34
2022/08/25 10:04:35;;;;;;;2.47;1.60;;;30.20;47.20;;;;;;10484197;28;20072;-35
2022/08/25 10:09:41;;;;;;;2.83;1.70;;;30.50;50.70;;;;;;10483993;28;20151;-36
2022/08/25 10:14:43;;;;;;;6.70;1.30;;;30.10;50.50;;;;;;10484595;28;20045;-35
2022/08/25 10:19:44;;;;;;;4.82;1.83;;;30.60;48.70;;;;;;10494633;28;20068;-35
2022/08/25 10:24:49;;;;;;;3.42;1.85;;;30.50;48.60;;;;;;10486075;28;20045;-36
2022/08/25 10:30:06;;;;;;;5.57;2.58;;;30.90;49.50;;;;;;10487638;28;20139;-37
2022/08/25 10:35:14;;;;;;;6.30;2.40;;;30.80;49.50;;;;;;10486690;28;20044;-36
2022/08/25 10:40:23;;;;;;;6.35;2.45;;;30.80;47.00;;;;;;10487482;28;20079;-36
2022/08/25 10:45:46;;;;;;;7.38;2.05;;;30.70;46.50;;;;;;10483566;28;20072;-37
2022/08/25 10:50:55;;;;;;;16.85;2.40;;;31.30;48.40;;;;;;10483210;28;20053;-36
2022/08/25 10:56:11;;;;;;;7.32;2.55;;;31.50;47.30;;;;;;10486030;28;20492;-35
2022/08/25 11:01:19;;;;;;;3.67;2.20;;;31.00;47.80;;;;;;10478995;28;20079;-35
2022/08/25 11:06:28;;;;;;;6.80;2.03;;;30.60;46.70;;;;;;10474611;28;20157;-37
2022/08/25 11:11:37;;;;;;;2.35;1.60;;;30.80;50.70;;;;;;10483242;28;20072;-35
2022/08/25 11:16:44;;;;;;;3.72;2.00;;;30.60;49.60;;;;;;10474474;28;20155;-36
2022/08/25 11:21:51;;;;;;;6.53;2.55;;;31.10;46.90;;;;;;10478740;28;20037;-35
2022/08/25 11:26:56;;;;;;;8.55;2.10;;;30.70;47.80;;;;;;10480531;28;20119;-37
2022/08/25 11:32:00;;;;;;;3.83;2.17;;;30.90;45.90;;;;;;10466949;28;20076;-32
2022/08/25 11:37:08;;;;;;;5.68;2.10;;;31.00;50.70;;;;;;10485171;28;20051;-36
2022/08/25 11:42:25;;;;;;;4.85;2.47;;;31.00;49.40;;;;;;10480809;28;20109;-36
2022/08/25 11:47:46;;;;;;;3.63;1.75;;;30.70;48.80;;;;;;10480462;28;20052;-36
2022/08/25 11:52:52;;;;;;;5.93;2.58;;;30.70;49.40;;;;;;10485071;28;20084;-36
2022/08/25 11:58:17;;;;;;;6.05;2.83;;;30.90;50.70;;;;;;10482125;28;20056;-36
2022/08/25 12:03:51;;;;;;;6.40;3.20;;;31.00;50.10;;;;;;10490068;28;20053;-37
2022/08/25 12:14:47;;;;;;;5.95;4.30;;;30.90;52.90;;;;;;10481633;28;20059;-35
2022/08/25 12:20:12;;;;;;;11.43;6.63;;;30.70;52.40;;;;;;10492777;28;20111;-34
2022/08/25 12:25:42;;;;;;;15.38;6.70;;;30.50;53.30;;;;;;10490374;28;20056;-36
2022/08/25 12:30:50;;;;;;;13.40;9.43;;;30.40;54.40;;;;;;10483535;28;20545;-36
2022/08/25 12:35:57;;;;;;;10.55;5.57;;;30.00;54.50;;;;;;10490105;28;20049;-35
2022/08/25 12:47:49;;;;;;;14.05;12.15;;;29.20;57.70;;;;;;10475333;28;20085;-35
2022/08/25 12:52:52;;;;;;;18.27;15.07;;;29.60;57.40;;;;;;10477008;28;20041;-37
2022/08/25 12:57:57;;;;;;;19.17;13.02;;;29.30;57.10;;;;;;10457767;28;20830;-35
2022/08/25 13:03:43;;;;;;;23.40;15.27;;;30.70;56.00;;;;;;10487539;28;20048;-35
2022/08/25 13:09:25;;;;;;;25.27;15.13;;;29.90;57.90;;;;;;10471207;28;20097;-35
2022/08/25 13:14:58;;;;;;;18.23;14.40;;;30.40;58.10;;;;;;10478895;28;20067;-35
2022/08/25 13:44:13;;;;;;;26.40;19.95;;;30.10;62.40;;;;;;10479435;28;20040;-35
2022/08/25 13:55:46;;;;;;;23.02;15.40;;;31.00;58.80;;;;;;10474972;28;20526;-34
2022/08/25 14:06:40;;;;;;;30.60;21.05;;;31.50;59.10;;;;;;10469556;28;20058;-34
2022/08/25 14:11:45;;;;;;;26.30;17.55;;;30.70;59.10;;;;;;10486386;28;20055;-35
2022/08/25 14:16:50;;;;;;;27.85;19.45;;;30.90;64.50;;;;;;10470661;28;20040;-36
2022/08/25 14:21:53;;;;;;;27.35;19.77;;;30.70;63.50;;;;;;10478962;28;20132;-34
2022/08/25 14:26:56;;;;;;;24.75;18.08;;;29.30;66.90;;;;;;10489211;28;20135;-35
2022/08/25 14:32:04;;;;;;;29.58;20.88;;;29.80;64.70;;;;;;10485031;28;20103;-35
2022/08/25 14:37:12;;;;;;;36.75;22.10;;;29.10;67.70;;;;;;10463586;28;20049;-35
2022/08/25 14:42:49;;;;;;;34.30;24.83;;;28.90;68.00;;;;;;10484480;28;20102;-35
2022/08/25 14:48:16;;;;;;;30.98;22.92;;;28.20;67.90;;;;;;10429669;28;20630;-35
2022/08/25 14:53:21;;;;;;;29.23;21.48;;;28.10;70.70;;;;;;10439044;28;20448;-36
2022/08/25 14:58:24;;;;;;;26.30;16.60;;;28.30;67.70;;;;;;10438650;28;20049;-35
2022/08/25 15:03:30;;;;;;;27.80;17.55;;;28.30;69.00;;;;;;10423615;28;20048;-36
2022/08/25 15:13:53;;;;;;;28.60;16.05;;;28.20;69.30;;;;;;10434497;28;20052;-36
2022/08/25 15:18:55;;;;;;;25.52;17.88;;;28.70;67.30;;;;;;10441132;28;20049;-41
2022/08/25 15:23:58;;;;;;;30.73;17.17;;;27.40;70.10;;;;;;10425130;28;20045;-34
2022/08/25 15:29:01;;;;;;;25.95;16.33;;;26.90;71.00;;;;;;10435137;28;20061;-37
2022/08/25 15:34:03;;;;;;;16.98;13.02;;;26.90;74.90;;;;;;10431008;28;20080;-35
2022/08/25 15:39:06;;;;;;;19.60;13.63;;;26.80;72.60;;;;;;10452779;28;20128;-36
2022/08/25 15:44:10;;;;;;;19.80;8.85;;;26.40;74.90;;;;;;10456526;28;20118;-35
2022/08/25 15:49:12;;;;;;;20.88;10.23;;;27.10;76.00;;;;;;10456861;28;20048;-35
2022/08/25 15:54:14;;;;;;;21.08;8.65;;;26.70;73.60;;;;;;10439067;28;20056;-37
2022/08/25 15:59:18;;;;;;;25.20;8.93;;;26.40;74.80;;;;;;10443868;28;20045;-36
2022/08/25 16:04:20;;;;;;;19.10;8.90;;;26.10;76.80;;;;;;10454609;28;20413;-36
2022/08/25 16:09:22;;;;;;;17.83;7.70;;;25.70;77.80;;;;;;10439343;28;20072;-35
2022/08/25 16:14:26;;;;;;;16.95;6.78;;;25.60;78.10;;;;;;10450733;28;20167;-36
2022/08/25 16:19:28;;;;;;;8.88;3.70;;;25.50;79.70;;;;;;10453141;28;20489;-37
2022/08/25 16:24:30;;;;;;;12.82;6.15;;;27.70;73.90;;;;;;10443880;28;20106;-36
2022/08/25 16:29:35;;;;;;;6.97;3.10;;;30.10;64.80;;;;;;10454488;28;20044;-33
2022/08/25 16:34:37;;;;;;;9.35;3.75;;;30.30;65.00;;;;;;10441538;28;20131;-37
2022/08/25 16:39:42;;;;;;;12.77;4.30;;;31.50;61.10;;;;;;10457600;28;20465;-35
2022/08/25 16:44:46;;;;;;;11.45;4.88;;;31.20;61.30;;;;;;10455037;28;20514;-35
2022/08/25 16:49:47;;;;;;;7.35;3.60;;;30.10;64.10;;;;;;10450726;28;20045;-35
2022/08/25 17:00:14;;;;;;;16.92;4.50;;;30.90;60.50;;;;;;10449764;28;20045;-36
2022/08/25 17:05:17;;;;;;;8.65;3.83;;;29.40;64.40;;;;;;10440871;28;20086;-34
2022/08/25 17:10:19;;;;;;;13.63;3.75;;;29.80;64.00;;;;;;10445567;28;20052;-36
2022/08/25 17:15:23;;;;;;;12.82;3.55;;;30.30;62.10;;;;;;10447380;28;20126;-36
2022/08/25 17:20:25;;;;;;;14.30;4.00;;;29.60;64.60;;;;;;10451395;28;20068;-34
2022/08/25 17:25:26;;;;;;;7.75;3.33;;;28.90;66.20;;;;;;10439802;28;20046;-35
2022/08/25 17:30:31;;;;;;;12.35;2.55;;;28.90;66.50;;;;;;10439663;28;20122;-37
2022/08/25 17:35:38;;;;;;;6.32;2.95;;;27.60;68.50;;;;;;10433722;28;20045;-36
2022/08/25 17:40:40;;;;;;;9.07;3.63;;;27.20;74.50;;;;;;10436832;28;20180;-35
2022/08/25 17:45:43;;;;;;;13.77;3.75;;;29.90;64.50;;;;;;10451570;28;20130;-36
2022/08/25 17:50:45;;;;;;;5.38;2.58;;;29.20;65.60;;;;;;10446562;28;20049;-36
2022/08/25 17:55:48;;;;;;;8.35;2.35;;;29.70;64.30;;;;;;10439208;28;20091;-35
2022/08/25 18:00:51;;;;;;;7.80;2.45;;;30.60;61.00;;;;;;10438703;28;20111;-36
2022/08/25 18:05:53;;;;;;;7.32;1.67;;;30.60;60.50;;;;;;10445053;28;20045;-36
2022/08/25 18:10:55;;;;;;;8.48;2.30;;;30.70;60.40;;;;;;10446976;28;20136;-37
2022/08/25 18:15:59;;;;;;;8.38;2.13;;;30.70;59.90;;;;;;10453520;28;20048;-35
2022/08/25 18:21:01;;;;;;;7.72;2.10;;;30.80;59.50;;;;;;10449090;28;20293;-37
2022/08/25 18:26:03;;;;;;;16.38;2.65;;;31.20;59.00;;;;;;10465269;28;20060;-37
2022/08/25 18:31:06;;;;;;;9.90;2.80;;;30.50;60.90;;;;;;10434463;28;20090;-37
2022/08/25 18:36:09;;;;;;;8.48;2.58;;;29.50;62.50;;;;;;10440028;28;20044;-35
2022/08/25 18:41:12;;;;;;;8.77;2.78;;;30.20;61.30;;;;;;10448653;28;20110;-37
2022/08/25 18:46:15;;;;;;;9.63;2.30;;;30.30;61.30;;;;;;10439707;28;20061;-34
2022/08/25 18:51:18;;;;;;;6.70;2.50;;;29.90;62.30;;;;;;10445554;28;20131;-35
2022/08/25 18:56:21;;;;;;;11.85;2.88;;;29.90;62.70;;;;;;10449379;28;20049;-37
2022/08/25 19:01:24;;;;;;;8.90;2.38;;;30.30;60.80;;;;;;10425376;28;20042;-36
2022/08/25 19:06:26;;;;;;;9.52;2.40;;;29.70;61.20;;;;;;10449535;28;20515;-37
2022/08/25 19:11:28;;;;;;;6.28;2.92;;;29.70;62.70;;;;;;10439744;28;20072;-36
2022/08/25 19:16:34;;;;;;;6.90;1.80;;;30.00;61.80;;;;;;10429909;28;20073;-36
2022/08/25 19:21:37;;;;;;;6.47;1.90;;;29.20;63.30;;;;;;10434192;28;20520;-38
2022/08/25 19:26:40;;;;;;;9.20;2.25;;;29.90;60.80;;;;;;10432826;28;20151;-36
2022/08/25 19:31:45;;;;;;;9.07;1.92;;;30.20;59.40;;;;;;10433710;28;20456;-37
2022/08/25 19:36:47;;;;;;;4.40;1.70;;;30.40;60.00;;;;;;10431138;28;20053;-35
2022/08/25 19:41:49;;;;;;;6.05;2.03;;;30.00;61.00;;;;;;10428976;28;20530;-37
2022/08/25 19:46:52;;;;;;;9.05;2.15;;;30.20;60.20;;;;;;10427550;28;20588;-35
2022/08/25 19:51:56;;;;;;;4.63;1.58;;;29.10;62.90;;;;;;10428497;28;20414;-37
2022/08/25 19:56:58;;;;;;;5.45;1.50;;;29.90;61.00;;;;;;10423514;28;20037;-37
2022/08/25 20:02:01;;;;;;;5.07;1.63;;;28.10;65.80;;;;;;10421270;28;20049;-36
2022/08/25 20:07:03;;;;;;;7.75;1.60;;;29.30;61.70;;;;;;10438581;28;20144;-37
2022/08/25 20:12:06;;;;;;;3.40;1.00;;;29.00;63.60;;;;;;10433485;28;20140;-36
2022/08/25 20:17:10;;;;;;;10.02;1.88;;;28.80;62.10;;;;;;10420302;28;20045;-37
2022/08/25 20:22:12;;;;;;;3.85;1.10;;;28.70;62.30;;;;;;10432936;28;20049;-37
2022/08/25 20:27:14;;;;;;;3.17;1.35;;;28.40;61.90;;;;;;10440651;28;20108;-36
2022/08/25 20:32:18;;;;;;;9.65;2.17;;;29.50;61.70;;;;;;10424067;28;20073;-35
2022/08/25 20:37:20;;;;;;;6.43;1.27;;;29.20;61.60;;;;;;10445421;28;20036;-37
2022/08/25 20:42:22;;;;;;;8.65;1.40;;;28.40;62.50;;;;;;10440692;28;20095;-35
2022/08/25 20:47:26;;;;;;;5.03;0.82;;;28.60;62.20;;;;;;10441778;28;20065;-37
2022/08/25 20:52:28;;;;;;;3.70;0.90;;;29.90;60.00;;;;;;10453769;28;20053;-35
2022/08/25 20:57:30;;;;;;;4.53;1.08;;;29.60;60.80;;;;;;10448049;28;20136;-37
2022/08/25 21:02:33;;;;;;;3.67;1.02;;;30.00;59.70;;;;;;10454495;28;20131;-38
2022/08/25 21:07:35;;;;;;;2.92;0.90;;;29.30;60.80;;;;;;10455287;28;20111;-37
2022/08/25 21:12:37;;;;;;;3.50;0.90;;;27.60;65.10;;;;;;10450942;28;20501;-38
2022/08/25 21:17:40;;;;;;;5.35;1.10;;;29.90;59.80;;;;;;10428509;28;20073;-36
2022/08/25 21:22:42;;;;;;;3.63;0.80;;;28.10;64.50;;;;;;10439561;28;20114;-36
2022/08/25 21:27:44;;;;;;;7.32;1.02;;;28.50;62.90;;;;;;10447156;28;20144;-36
2022/08/25 21:32:47;;;;;;;3.72;0.57;;;27.40;62.50;;;;;;10457992;28;20076;-35
2022/08/25 21:37:49;;;;;;;9.05;1.38;;;27.90;65.10;;;;;;10460282;28;20044;-38
2022/08/25 21:42:51;;;;;;;2.67;0.68;;;28.70;61.20;;;;;;10441838;28;20049;-35
2022/08/25 21:47:54;;;;;;;2.65;0.68;;;29.10;60.90;;;;;;10430734;28;20052;-35
2022/08/25 21:52:56;;;;;;;5.45;0.85;;;28.50;61.60;;;;;;10437557;28;20084;-36
2022/08/25 21:57:58;;;;;;;3.38;0.60;;;28.00;60.00;;;;;;10436910;28;20549;-37
2022/08/25 22:03:01;;;;;;;0.98;0.40;;;28.90;61.00;;;;;;10456687;28;20073;-36
2022/08/25 22:08:03;;;;;;;1.58;0.50;;;28.60;61.60;;;;;;10443101;28;20143;-37
2022/08/25 22:13:05;;;;;;;3.97;0.45;;;29.10;60.20;;;;;;10459223;28;20068;-35
2022/08/25 22:18:08;;;;;;;4.18;1.00;;;27.90;62.20;;;;;;10436635;28;20122;-35
2022/08/25 22:23:11;;;;;;;1.58;0.63;;;26.80;65.00;;;;;;10445595;28;20076;-36
2022/08/25 22:28:14;;;;;;;2.22;0.50;;;27.50;63.70;;;;;;10423585;28;20138;-40
2022/08/25 22:33:17;;;;;;;1.67;0.40;;;28.00;61.80;;;;;;10435899;28;20045;-37
2022/08/25 22:38:19;;;;;;;3.03;0.85;;;29.00;59.70;;;;;;10433412;28;20041;-36
2022/08/25 22:43:21;;;;;;;1.50;0.40;;;28.40;60.20;;;;;;10443561;28;20103;-36
2022/08/25 22:48:24;;;;;;;1.67;0.40;;;29.20;59.10;;;;;;10439467;28;20057;-36
2022/08/25 22:53:26;;;;;;;4.40;0.65;;;29.30;58.60;;;;;;10430601;28;20038;-36
2022/08/25 22:58:29;;;;;;;6.10;0.75;;;28.70;58.70;;;;;;10418536;28;20044;-36
2022/08/25 23:03:32;;;;;;;1.88;0.52;;;27.60;60.70;;;;;;10436541;28;20043;-36
2022/08/25 23:08:33;;;;;;;2.00;0.40;;;28.00;60.30;;;;;;10424855;28;20140;-36
2022/08/25 23:13:36;;;;;;;3.78;0.80;;;27.80;60.00;;;;;;10428214;28;20068;-36
2022/08/25 23:18:41;;;;;;;2.17;0.65;;;28.70;59.80;;;;;;10418435;28;20107;-35
2022/08/25 23:23:43;;;;;;;3.65;0.52;;;28.50;60.10;;;;;;10434074;28;20072;-36
2022/08/25 23:28:45;;;;;;;2.60;0.50;;;28.10;60.70;;;;;;10432439;28;20080;-38
2022/08/25 23:33:48;;;;;;;1.92;0.43;;;27.80;61.40;;;;;;10423107;28;20392;-36
2022/08/25 23:38:50;;;;;;;2.72;0.45;;;28.70;59.60;;;;;;10425508;28;20133;-36
2022/08/25 23:43:53;;;;;;;2.28;0.50;;;28.10;60.70;;;;;;10419883;28;20128;-35
2022/08/25 23:48:56;;;;;;;1.27;0.43;;;29.30;58.30;;;;;;10423758;28;20052;-35
2022/08/25 23:53:58;;;;;;;4.35;0.40;;;28.50;59.70;;;;;;10435145;28;20049;-35
2022/08/25 23:59:02;;;;;;;4.15;0.63;;;27.70;60.30;;;;;;10432213;28;20136;-36
